KMLS/MLS METAR and TAF weather

Enter ICAO airport designator
Station Type Date Time Source
KMLS METAR 2021/09/16 20:53 UTC NOAA

KMLS 162053Z AUTO 35016KT 10SM OVC070 13/03 A2996 RMK AO2 SLP139 T01280033 53024


Station Type Date Time Source
KMLS Decoded METAR 2021/09/16 20:53 UTC NOAA

MILES CITY WILEY FIELD, MT, United States (KMLS) 46-26N 105-53W 801M
Sep 16, 2021 - 04:53 PM EDT / 2021.09.16 2053 UTC
Wind: from the N (350 degrees) at 18 MPH (16 KT):0
Visibility: 10 mile(s):0
Sky conditions: overcast
Temperature: 55.0 F (12.8 C)
Dew Point: 37.9 F (3.3 C)
Relative Humidity: 52%
Pressure (altimeter): 29.96 in. Hg (1014 hPa)
Pressure tendency: 0.07 inches (2.4 hPa) higher than three hours ago
ob: KMLS 162053Z AUTO 35016KT 10SM OVC070 13/03 A2996 RMK AO2 SLP139 T01280033 53024
cycle: 21

Station Type Date Time Source
KMLS TAF 2021/09/16 19:54 UTC NOAA

TAF
AMD KMLS 161853Z 1619/1718 35012G20KT P6SM VCSH SCT060 BKN100
FM170300 VRB06KT P6SM SKC

Example: see airport list